sensor_id;sensor_type;location;lat;lon;timestamp;P1;durP1;ratioP1;P2;durP2;ratioP2
53505;SDS011;39388;50.936;6.848;2023-02-25T00:01:59;9.43;;;3.88;;
53505;SDS011;39388;50.936;6.848;2023-02-25T00:04:29;12.02;;;4.82;;
53505;SDS011;39388;50.936;6.848;2023-02-25T00:07:00;11.43;;;4.10;;
53505;SDS011;39388;50.936;6.848;2023-02-25T00:09:30;9.13;;;3.85;;
53505;SDS011;39388;50.936;6.848;2023-02-25T00:12:01;11.35;;;4.28;;
53505;SDS011;39388;50.936;6.848;2023-02-25T00:14:31;14.20;;;5.32;;
53505;SDS011;39388;50.936;6.848;2023-02-25T00:17:02;8.13;;;3.78;;
53505;SDS011;39388;50.936;6.848;2023-02-25T00:19:32;12.57;;;4.50;;
53505;SDS011;39388;50.936;6.848;2023-02-25T00:22:02;12.18;;;4.45;;
53505;SDS011;39388;50.936;6.848;2023-02-25T00:24:33;11.65;;;4.13;;
53505;SDS011;39388;50.936;6.848;2023-02-25T00:27:03;10.45;;;4.50;;
53505;SDS011;39388;50.936;6.848;2023-02-25T00:29:34;8.20;;;4.05;;
53505;SDS011;39388;50.936;6.848;2023-02-25T00:32:04;7.05;;;4.38;;
53505;SDS011;39388;50.936;6.848;2023-02-25T00:34:34;14.35;;;4.68;;
53505;SDS011;39388;50.936;6.848;2023-02-25T00:37:05;12.80;;;4.40;;
53505;SDS011;39388;50.936;6.848;2023-02-25T00:39:35;8.93;;;4.20;;
53505;SDS011;39388;50.936;6.848;2023-02-25T00:42:16;11.98;;;4.40;;
53505;SDS011;39388;50.936;6.848;2023-02-25T00:44:48;11.63;;;3.78;;
53505;SDS011;39388;50.936;6.848;2023-02-25T00:47:19;9.18;;;3.97;;
53505;SDS011;39388;50.936;6.848;2023-02-25T00:49:50;15.77;;;5.35;;
53505;SDS011;39388;50.936;6.848;2023-02-25T00:52:21;12.93;;;4.97;;
53505;SDS011;39388;50.936;6.848;2023-02-25T00:54:51;7.55;;;3.78;;
53505;SDS011;39388;50.936;6.848;2023-02-25T00:57:22;12.00;;;4.40;;
53505;SDS011;39388;50.936;6.848;2023-02-25T00:59:52;8.55;;;3.65;;
53505;SDS011;39388;50.936;6.848;2023-02-25T01:02:22;13.90;;;4.78;;
53505;SDS011;39388;50.936;6.848;2023-02-25T01:04:53;14.13;;;5.45;;
53505;SDS011;39388;50.936;6.848;2023-02-25T01:07:23;13.48;;;4.22;;
53505;SDS011;39388;50.936;6.848;2023-02-25T01:09:54;8.88;;;3.63;;
53505;SDS011;39388;50.936;6.848;2023-02-25T01:12:25;9.15;;;4.72;;
53505;SDS011;39388;50.936;6.848;2023-02-25T01:14:55;11.20;;;3.90;;
53505;SDS011;39388;50.936;6.848;2023-02-25T01:17:26;11.77;;;3.90;;
53505;SDS011;39388;50.936;6.848;2023-02-25T01:19:56;9.18;;;4.45;;
53505;SDS011;39388;50.936;6.848;2023-02-25T01:22:27;10.27;;;3.97;;
53505;SDS011;39388;50.936;6.848;2023-02-25T01:24:57;7.43;;;3.67;;
53505;SDS011;39388;50.936;6.848;2023-02-25T01:27:27;10.20;;;3.70;;
53505;SDS011;39388;50.936;6.848;2023-02-25T01:29:58;11.27;;;3.90;;
53505;SDS011;39388;50.936;6.848;2023-02-25T01:32:28;8.98;;;3.35;;
53505;SDS011;39388;50.936;6.848;2023-02-25T01:34:59;6.15;;;3.20;;
53505;SDS011;39388;50.936;6.848;2023-02-25T01:37:29;10.27;;;3.75;;
53505;SDS011;39388;50.936;6.848;2023-02-25T01:40:00;9.32;;;3.88;;
53505;SDS011;39388;50.936;6.848;2023-02-25T01:42:30;10.40;;;3.28;;
53505;SDS011;39388;50.936;6.848;2023-02-25T01:50:26;8.80;;;3.00;;
53505;SDS011;39388;50.936;6.848;2023-02-25T01:53:02;11.93;;;3.53;;
53505;SDS011;39388;50.936;6.848;2023-02-25T01:55:33;9.70;;;3.20;;
53505;SDS011;39388;50.936;6.848;2023-02-25T01:58:04;9.23;;;3.40;;
53505;SDS011;39388;50.936;6.848;2023-02-25T02:00:34;8.63;;;3.40;;
53505;SDS011;39388;50.936;6.848;2023-02-25T02:03:06;8.52;;;3.10;;
53505;SDS011;39388;50.936;6.848;2023-02-25T02:05:48;6.68;;;3.15;;
53505;SDS011;39388;50.936;6.848;2023-02-25T02:08:25;12.10;;;4.13;;
53505;SDS011;39388;50.936;6.848;2023-02-25T02:10:55;9.15;;;3.42;;
53505;SDS011;39388;50.936;6.848;2023-02-25T02:13:26;10.63;;;3.53;;
53505;SDS011;39388;50.936;6.848;2023-02-25T02:18:34;21.65;;;8.93;;
53505;SDS011;39388;50.936;6.848;2023-02-25T02:26:50;8.00;;;2.95;;
53505;SDS011;39388;50.936;6.848;2023-02-25T02:29:52;11.05;;;3.90;;
53505;SDS011;39388;50.936;6.848;2023-02-25T02:33:03;8.68;;;3.72;;
53505;SDS011;39388;50.936;6.848;2023-02-25T02:35:50;10.32;;;4.88;;
53505;SDS011;39388;50.936;6.848;2023-02-25T02:38:50;8.40;;;3.78;;
53505;SDS011;39388;50.936;6.848;2023-02-25T02:41:35;7.20;;;3.35;;
53505;SDS011;39388;50.936;6.848;2023-02-25T02:46:55;9.40;;;3.60;;
53505;SDS011;39388;50.936;6.848;2023-02-25T02:52:24;12.18;;;3.50;;
53505;SDS011;39388;50.936;6.848;2023-02-25T02:55:02;8.55;;;3.38;;
53505;SDS011;39388;50.936;6.848;2023-02-25T02:57:37;6.75;;;3.35;;
53505;SDS011;39388;50.936;6.848;2023-02-25T03:00:11;12.60;;;3.67;;
53505;SDS011;39388;50.936;6.848;2023-02-25T03:02:51;8.68;;;4.03;;
53505;SDS011;39388;50.936;6.848;2023-02-25T03:05:28;11.05;;;4.05;;
53505;SDS011;39388;50.936;6.848;2023-02-25T03:10:53;10.25;;;4.22;;
53505;SDS011;39388;50.936;6.848;2023-02-25T03:13:24;12.18;;;3.88;;
53505;SDS011;39388;50.936;6.848;2023-02-25T03:15:54;12.85;;;4.85;;
53505;SDS011;39388;50.936;6.848;2023-02-25T03:18:34;9.48;;;3.90;;
53505;SDS011;39388;50.936;6.848;2023-02-25T03:21:11;10.32;;;3.80;;
53505;SDS011;39388;50.936;6.848;2023-02-25T03:23:44;12.27;;;3.85;;
53505;SDS011;39388;50.936;6.848;2023-02-25T03:26:26;10.07;;;3.85;;
53505;SDS011;39388;50.936;6.848;2023-02-25T03:28:59;8.68;;;3.70;;
53505;SDS011;39388;50.936;6.848;2023-02-25T03:34:05;12.80;;;5.18;;
53505;SDS011;39388;50.936;6.848;2023-02-25T03:36:45;7.95;;;3.20;;
53505;SDS011;39388;50.936;6.848;2023-02-25T03:41:54;7.87;;;3.13;;
53505;SDS011;39388;50.936;6.848;2023-02-25T03:44:30;7.80;;;3.08;;
53505;SDS011;39388;50.936;6.848;2023-02-25T03:47:08;9.32;;;3.17;;
53505;SDS011;39388;50.936;6.848;2023-02-25T03:52:33;7.82;;;3.15;;
53505;SDS011;39388;50.936;6.848;2023-02-25T03:55:04;8.90;;;3.25;;
53505;SDS011;39388;50.936;6.848;2023-02-25T03:57:37;8.75;;;3.25;;
53505;SDS011;39388;50.936;6.848;2023-02-25T04:00:24;12.23;;;3.50;;
53505;SDS011;39388;50.936;6.848;2023-02-25T04:02:59;10.85;;;4.35;;
53505;SDS011;39388;50.936;6.848;2023-02-25T04:05:30;12.23;;;3.95;;
53505;SDS011;39388;50.936;6.848;2023-02-25T04:08:00;8.15;;;3.28;;
53505;SDS011;39388;50.936;6.848;2023-02-25T04:10:31;9.75;;;3.80;;
53505;SDS011;39388;50.936;6.848;2023-02-25T04:13:03;7.88;;;3.58;;
53505;SDS011;39388;50.936;6.848;2023-02-25T04:15:35;10.10;;;3.50;;
53505;SDS011;39388;50.936;6.848;2023-02-25T04:18:05;12.55;;;3.50;;
53505;SDS011;39388;50.936;6.848;2023-02-25T04:20:36;10.07;;;3.75;;
53505;SDS011;39388;50.936;6.848;2023-02-25T04:23:11;16.15;;;4.30;;
53505;SDS011;39388;50.936;6.848;2023-02-25T04:25:45;10.60;;;4.13;;
53505;SDS011;39388;50.936;6.848;2023-02-25T04:28:16;8.93;;;3.35;;
53505;SDS011;39388;50.936;6.848;2023-02-25T04:30:46;12.38;;;4.00;;
53505;SDS011;39388;50.936;6.848;2023-02-25T04:33:17;9.80;;;4.05;;
53505;SDS011;39388;50.936;6.848;2023-02-25T04:35:47;6.70;;;3.20;;
53505;SDS011;39388;50.936;6.848;2023-02-25T04:38:17;7.80;;;3.30;;
53505;SDS011;39388;50.936;6.848;2023-02-25T04:40:49;9.98;;;3.25;;
53505;SDS011;39388;50.936;6.848;2023-02-25T04:43:20;10.65;;;3.38;;
53505;SDS011;39388;50.936;6.848;2023-02-25T04:45:52;5.10;;;2.72;;
53505;SDS011;39388;50.936;6.848;2023-02-25T04:48:23;13.20;;;3.90;;
53505;SDS011;39388;50.936;6.848;2023-02-25T04:50:54;10.77;;;3.28;;
53505;SDS011;39388;50.936;6.848;2023-02-25T04:53:24;6.53;;;2.90;;
53505;SDS011;39388;50.936;6.848;2023-02-25T04:55:55;11.13;;;2.90;;
53505;SDS011;39388;50.936;6.848;2023-02-25T04:58:25;7.47;;;3.50;;
53505;SDS011;39388;50.936;6.848;2023-02-25T05:00:57;7.78;;;3.58;;
53505;SDS011;39388;50.936;6.848;2023-02-25T05:03:31;8.65;;;4.20;;
53505;SDS011;39388;50.936;6.848;2023-02-25T05:06:02;10.27;;;3.70;;
53505;SDS011;39388;50.936;6.848;2023-02-25T05:08:34;10.18;;;3.20;;
53505;SDS011;39388;50.936;6.848;2023-02-25T05:11:05;10.68;;;4.32;;
53505;SDS011;39388;50.936;6.848;2023-02-25T05:13:36;9.05;;;3.45;;
53505;SDS011;39388;50.936;6.848;2023-02-25T05:16:07;11.75;;;3.50;;
53505;SDS011;39388;50.936;6.848;2023-02-25T05:18:41;11.80;;;4.15;;
53505;SDS011;39388;50.936;6.848;2023-02-25T05:21:14;6.75;;;3.35;;
53505;SDS011;39388;50.936;6.848;2023-02-25T05:23:47;8.82;;;2.90;;
53505;SDS011;39388;50.936;6.848;2023-02-25T05:26:20;9.63;;;3.20;;
53505;SDS011;39388;50.936;6.848;2023-02-25T05:28:54;7.47;;;3.20;;
53505;SDS011;39388;50.936;6.848;2023-02-25T05:31:25;6.10;;;3.75;;
53505;SDS011;39388;50.936;6.848;2023-02-25T05:33:56;7.65;;;2.60;;
53505;SDS011;39388;50.936;6.848;2023-02-25T05:36:26;10.27;;;3.63;;
53505;SDS011;39388;50.936;6.848;2023-02-25T05:38:57;8.52;;;3.00;;
53505;SDS011;39388;50.936;6.848;2023-02-25T05:41:28;7.88;;;3.13;;
53505;SDS011;39388;50.936;6.848;2023-02-25T05:43:59;10.65;;;3.67;;
53505;SDS011;39388;50.936;6.848;2023-02-25T05:46:29;10.40;;;3.30;;
53505;SDS011;39388;50.936;6.848;2023-02-25T05:49:00;11.68;;;3.22;;
53505;SDS011;39388;50.936;6.848;2023-02-25T05:51:30;9.05;;;2.95;;
53505;SDS011;39388;50.936;6.848;2023-02-25T05:54:01;8.30;;;3.58;;
53505;SDS011;39388;50.936;6.848;2023-02-25T05:56:31;7.85;;;2.92;;
53505;SDS011;39388;50.936;6.848;2023-02-25T05:59:01;10.52;;;2.80;;
53505;SDS011;39388;50.936;6.848;2023-02-25T06:01:32;12.27;;;3.50;;
53505;SDS011;39388;50.936;6.848;2023-02-25T06:04:02;9.77;;;3.33;;
53505;SDS011;39388;50.936;6.848;2023-02-25T06:06:33;10.55;;;3.38;;
53505;SDS011;39388;50.936;6.848;2023-02-25T06:09:03;10.30;;;3.85;;
53505;SDS011;39388;50.936;6.848;2023-02-25T06:11:34;8.52;;;3.10;;
53505;SDS011;39388;50.936;6.848;2023-02-25T06:14:05;5.13;;;2.67;;
53505;SDS011;39388;50.936;6.848;2023-02-25T06:16:36;9.25;;;3.40;;
53505;SDS011;39388;50.936;6.848;2023-02-25T06:19:07;8.37;;;2.87;;
53505;SDS011;39388;50.936;6.848;2023-02-25T06:21:39;8.32;;;3.13;;
53505;SDS011;39388;50.936;6.848;2023-02-25T06:24:10;9.50;;;3.33;;
53505;SDS011;39388;50.936;6.848;2023-02-25T06:26:40;7.70;;;3.88;;
53505;SDS011;39388;50.936;6.848;2023-02-25T06:29:11;12.70;;;3.20;;
53505;SDS011;39388;50.936;6.848;2023-02-25T06:31:42;9.13;;;3.00;;
53505;SDS011;39388;50.936;6.848;2023-02-25T06:34:12;11.65;;;3.80;;
53505;SDS011;39388;50.936;6.848;2023-02-25T06:36:42;17.05;;;4.40;;
53505;SDS011;39388;50.936;6.848;2023-02-25T06:39:13;8.40;;;3.83;;
53505;SDS011;39388;50.936;6.848;2023-02-25T06:41:43;8.38;;;3.58;;
53505;SDS011;39388;50.936;6.848;2023-02-25T06:44:14;6.88;;;3.58;;
53505;SDS011;39388;50.936;6.848;2023-02-25T06:46:44;10.27;;;5.13;;
53505;SDS011;39388;50.936;6.848;2023-02-25T06:49:15;9.23;;;3.22;;
53505;SDS011;39388;50.936;6.848;2023-02-25T06:51:45;6.57;;;3.45;;
53505;SDS011;39388;50.936;6.848;2023-02-25T06:54:17;6.13;;;3.03;;
53505;SDS011;39388;50.936;6.848;2023-02-25T06:56:48;13.57;;;4.47;;
53505;SDS011;39388;50.936;6.848;2023-02-25T06:59:19;12.25;;;4.20;;
53505;SDS011;39388;50.936;6.848;2023-02-25T07:01:49;14.02;;;4.97;;
53505;SDS011;39388;50.936;6.848;2023-02-25T07:04:20;10.70;;;4.05;;
53505;SDS011;39388;50.936;6.848;2023-02-25T07:06:50;10.88;;;3.95;;
53505;SDS011;39388;50.936;6.848;2023-02-25T07:09:20;10.50;;;3.50;;
53505;SDS011;39388;50.936;6.848;2023-02-25T07:11:51;12.52;;;3.20;;
53505;SDS011;39388;50.936;6.848;2023-02-25T07:14:21;11.00;;;3.60;;
53505;SDS011;39388;50.936;6.848;2023-02-25T07:16:51;12.43;;;3.70;;
53505;SDS011;39388;50.936;6.848;2023-02-25T07:19:22;8.93;;;3.40;;
53505;SDS011;39388;50.936;6.848;2023-02-25T07:21:52;6.78;;;3.42;;
53505;SDS011;39388;50.936;6.848;2023-02-25T07:24:23;8.15;;;4.18;;
53505;SDS011;39388;50.936;6.848;2023-02-25T07:26:53;8.52;;;3.20;;
53505;SDS011;39388;50.936;6.848;2023-02-25T07:29:24;8.93;;;2.60;;
53505;SDS011;39388;50.936;6.848;2023-02-25T07:31:54;11.27;;;3.10;;
53505;SDS011;39388;50.936;6.848;2023-02-25T07:34:25;6.78;;;2.90;;
53505;SDS011;39388;50.936;6.848;2023-02-25T07:36:56;12.48;;;3.20;;
53505;SDS011;39388;50.936;6.848;2023-02-25T07:39:27;7.43;;;2.88;;
53505;SDS011;39388;50.936;6.848;2023-02-25T07:41:57;7.85;;;2.97;;
53505;SDS011;39388;50.936;6.848;2023-02-25T07:44:28;9.40;;;3.28;;
53505;SDS011;39388;50.936;6.848;2023-02-25T07:46:58;6.63;;;3.20;;
53505;SDS011;39388;50.936;6.848;2023-02-25T07:49:28;11.15;;;3.85;;
53505;SDS011;39388;50.936;6.848;2023-02-25T07:51:59;11.45;;;4.03;;
53505;SDS011;39388;50.936;6.848;2023-02-25T07:54:29;11.18;;;4.18;;
53505;SDS011;39388;50.936;6.848;2023-02-25T07:57:00;10.98;;;3.70;;
53505;SDS011;39388;50.936;6.848;2023-02-25T07:59:30;10.02;;;3.80;;
53505;SDS011;39388;50.936;6.848;2023-02-25T08:02:03;12.32;;;3.75;;
53505;SDS011;39388;50.936;6.848;2023-02-25T08:04:34;10.18;;;3.80;;
53505;SDS011;39388;50.936;6.848;2023-02-25T08:07:05;8.25;;;3.30;;
53505;SDS011;39388;50.936;6.848;2023-02-25T08:09:36;11.77;;;3.70;;
53505;SDS011;39388;50.936;6.848;2023-02-25T08:12:06;5.28;;;3.28;;
53505;SDS011;39388;50.936;6.848;2023-02-25T08:14:37;10.68;;;3.50;;
53505;SDS011;39388;50.936;6.848;2023-02-25T08:17:08;8.40;;;3.50;;
53505;SDS011;39388;50.936;6.848;2023-02-25T08:19:38;11.55;;;3.50;;
53505;SDS011;39388;50.936;6.848;2023-02-25T08:22:10;11.55;;;3.33;;
53505;SDS011;39388;50.936;6.848;2023-02-25T08:24:41;8.98;;;4.18;;
53505;SDS011;39388;50.936;6.848;2023-02-25T08:27:11;11.10;;;3.40;;
53505;SDS011;39388;50.936;6.848;2023-02-25T08:29:41;8.93;;;3.00;;
53505;SDS011;39388;50.936;6.848;2023-02-25T08:32:12;13.98;;;4.07;;
53505;SDS011;39388;50.936;6.848;2023-02-25T08:34:42;9.85;;;3.50;;
53505;SDS011;39388;50.936;6.848;2023-02-25T08:37:13;10.65;;;3.30;;
53505;SDS011;39388;50.936;6.848;2023-02-25T08:39:43;13.68;;;4.30;;
53505;SDS011;39388;50.936;6.848;2023-02-25T08:42:13;12.73;;;4.03;;
53505;SDS011;39388;50.936;6.848;2023-02-25T08:44:48;9.82;;;3.45;;
53505;SDS011;39388;50.936;6.848;2023-02-25T08:47:18;13.13;;;3.53;;
53505;SDS011;39388;50.936;6.848;2023-02-25T08:49:49;7.05;;;2.97;;
53505;SDS011;39388;50.936;6.848;2023-02-25T08:52:19;9.10;;;3.40;;
53505;SDS011;39388;50.936;6.848;2023-02-25T08:54:49;9.25;;;4.32;;
53505;SDS011;39388;50.936;6.848;2023-02-25T08:57:20;10.00;;;3.22;;
53505;SDS011;39388;50.936;6.848;2023-02-25T08:59:50;9.77;;;4.07;;
53505;SDS011;39388;50.936;6.848;2023-02-25T09:02:21;11.15;;;3.28;;
53505;SDS011;39388;50.936;6.848;2023-02-25T09:04:53;8.50;;;3.13;;
53505;SDS011;39388;50.936;6.848;2023-02-25T09:07:23;9.30;;;2.80;;
53505;SDS011;39388;50.936;6.848;2023-02-25T09:09:53;7.38;;;3.15;;
53505;SDS011;39388;50.936;6.848;2023-02-25T09:12:24;9.20;;;3.10;;
53505;SDS011;39388;50.936;6.848;2023-02-25T09:14:54;4.65;;;2.10;;
53505;SDS011;39388;50.936;6.848;2023-02-25T09:17:25;9.38;;;3.45;;
53505;SDS011;39388;50.936;6.848;2023-02-25T09:19:55;6.32;;;2.85;;
53505;SDS011;39388;50.936;6.848;2023-02-25T09:22:27;8.18;;;2.70;;
53505;SDS011;39388;50.936;6.848;2023-02-25T09:24:57;7.13;;;2.75;;
53505;SDS011;39388;50.936;6.848;2023-02-25T09:27:28;9.43;;;2.78;;
53505;SDS011;39388;50.936;6.848;2023-02-25T09:29:58;6.13;;;2.75;;
53505;SDS011;39388;50.936;6.848;2023-02-25T09:32:28;4.03;;;2.38;;
53505;SDS011;39388;50.936;6.848;2023-02-25T09:34:59;7.78;;;3.28;;
53505;SDS011;39388;50.936;6.848;2023-02-25T09:37:36;11.00;;;3.60;;
53505;SDS011;39388;50.936;6.848;2023-02-25T09:40:06;3.45;;;2.28;;
53505;SDS011;39388;50.936;6.848;2023-02-25T09:42:51;5.55;;;2.83;;
53505;SDS011;39388;50.936;6.848;2023-02-25T09:45:26;3.95;;;2.50;;
53505;SDS011;39388;50.936;6.848;2023-02-25T09:47:57;6.80;;;2.83;;
53505;SDS011;39388;50.936;6.848;2023-02-25T09:55:37;5.47;;;2.80;;
53505;SDS011;39388;50.936;6.848;2023-02-25T10:00:44;9.73;;;3.25;;
53505;SDS011;39388;50.936;6.848;2023-02-25T10:09:16;7.82;;;2.90;;
53505;SDS011;39388;50.936;6.848;2023-02-25T10:11:57;10.32;;;3.47;;
53505;SDS011;39388;50.936;6.848;2023-02-25T10:25:31;8.15;;;3.13;;
53505;SDS011;39388;50.936;6.848;2023-02-25T10:28:09;7.28;;;2.92;;
53505;SDS011;39388;50.936;6.848;2023-02-25T10:33:33;8.93;;;2.63;;
53505;SDS011;39388;50.936;6.848;2023-02-25T10:38:47;11.05;;;3.10;;
53505;SDS011;39388;50.936;6.848;2023-02-25T10:41:21;5.50;;;2.75;;
53505;SDS011;39388;50.936;6.848;2023-02-25T10:43:55;6.32;;;3.53;;
53505;SDS011;39388;50.936;6.848;2023-02-25T10:49:15;7.70;;;3.13;;
53505;SDS011;39388;50.936;6.848;2023-02-25T10:51:55;7.88;;;2.80;;
53505;SDS011;39388;50.936;6.848;2023-02-25T10:54:27;8.05;;;3.15;;
53505;SDS011;39388;50.936;6.848;2023-02-25T10:57:29;5.88;;;3.20;;
53505;SDS011;39388;50.936;6.848;2023-02-25T11:00:32;4.50;;;2.88;;
53505;SDS011;39388;50.936;6.848;2023-02-25T11:03:03;7.00;;;4.22;;
53505;SDS011;39388;50.936;6.848;2023-02-25T11:05:40;4.22;;;3.45;;
53505;SDS011;39388;50.936;6.848;2023-02-25T11:08:46;5.40;;;3.05;;
53505;SDS011;39388;50.936;6.848;2023-02-25T11:11:17;2.97;;;2.50;;
53505;SDS011;39388;50.936;6.848;2023-02-25T11:14:14;3.25;;;2.08;;
53505;SDS011;39388;50.936;6.848;2023-02-25T11:16:44;5.50;;;2.53;;
53505;SDS011;39388;50.936;6.848;2023-02-25T11:19:23;2.53;;;2.33;;
53505;SDS011;39388;50.936;6.848;2023-02-25T11:21:57;3.28;;;2.80;;
53505;SDS011;39388;50.936;6.848;2023-02-25T11:24:35;2.30;;;2.10;;
53505;SDS011;39388;50.936;6.848;2023-02-25T11:29:52;4.47;;;2.28;;
53505;SDS011;39388;50.936;6.848;2023-02-25T11:32:28;2.03;;;1.83;;
53505;SDS011;39388;50.936;6.848;2023-02-25T11:35:02;2.03;;;1.92;;
53505;SDS011;39388;50.936;6.848;2023-02-25T11:37:43;1.90;;;1.80;;
53505;SDS011;39388;50.936;6.848;2023-02-25T11:40:25;2.65;;;2.20;;
53505;SDS011;39388;50.936;6.848;2023-02-25T11:45:36;2.03;;;1.90;;
53505;SDS011;39388;50.936;6.848;2023-02-25T11:48:19;2.42;;;2.22;;
53505;SDS011;39388;50.936;6.848;2023-02-25T11:57:00;2.45;;;2.20;;
53505;SDS011;39388;50.936;6.848;2023-02-25T12:02:29;3.28;;;2.38;;
53505;SDS011;39388;50.936;6.848;2023-02-25T12:22:41;5.35;;;3.03;;
53505;SDS011;39388;50.936;6.848;2023-02-25T12:27:50;3.85;;;2.63;;
53505;SDS011;39388;50.936;6.848;2023-02-25T12:33:22;3.53;;;2.83;;
53505;SDS011;39388;50.936;6.848;2023-02-25T12:47:01;5.97;;;4.20;;
53505;SDS011;39388;50.936;6.848;2023-02-25T12:49:59;7.07;;;5.13;;
53505;SDS011;39388;50.936;6.848;2023-02-25T12:53:16;6.40;;;4.38;;
53505;SDS011;39388;50.936;6.848;2023-02-25T12:58:23;5.18;;;3.33;;
53505;SDS011;39388;50.936;6.848;2023-02-25T13:06:33;5.60;;;3.00;;
53505;SDS011;39388;50.936;6.848;2023-02-25T13:37:34;4.50;;;2.60;;
53505;SDS011;39388;50.936;6.848;2023-02-25T13:43:48;3.08;;;1.77;;
53505;SDS011;39388;50.936;6.848;2023-02-25T13:49:39;2.10;;;2.00;;
53505;SDS011;39388;50.936;6.848;2023-02-25T13:52:29;4.90;;;2.17;;
53505;SDS011;39388;50.936;6.848;2023-02-25T14:06:19;3.20;;;2.10;;
53505;SDS011;39388;50.936;6.848;2023-02-25T14:09:09;7.38;;;2.40;;
53505;SDS011;39388;50.936;6.848;2023-02-25T14:14:51;1.92;;;1.63;;
53505;SDS011;39388;50.936;6.848;2023-02-25T14:29:32;3.15;;;2.38;;
53505;SDS011;39388;50.936;6.848;2023-02-25T14:35:16;4.53;;;2.10;;
53505;SDS011;39388;50.936;6.848;2023-02-25T14:38:04;2.63;;;1.90;;
53505;SDS011;39388;50.936;6.848;2023-02-25T14:40:40;3.08;;;2.22;;
53505;SDS011;39388;50.936;6.848;2023-02-25T14:43:35;3.40;;;2.03;;
53505;SDS011;39388;50.936;6.848;2023-02-25T15:01:03;2.80;;;1.80;;
53505;SDS011;39388;50.936;6.848;2023-02-25T15:04:04;4.97;;;2.10;;
53505;SDS011;39388;50.936;6.848;2023-02-25T15:09:42;2.73;;;1.80;;
53505;SDS011;39388;50.936;6.848;2023-02-25T15:18:52;2.45;;;1.75;;
53505;SDS011;39388;50.936;6.848;2023-02-25T15:24:00;3.05;;;1.90;;
53505;SDS011;39388;50.936;6.848;2023-02-25T15:29:20;4.13;;;2.20;;
53505;SDS011;39388;50.936;6.848;2023-02-25T15:34:51;1.85;;;1.67;;
53505;SDS011;39388;50.936;6.848;2023-02-25T15:42:59;2.40;;;1.55;;
53505;SDS011;39388;50.936;6.848;2023-02-25T15:48:36;3.10;;;2.22;;
53505;SDS011;39388;50.936;6.848;2023-02-25T15:51:08;2.10;;;1.75;;
53505;SDS011;39388;50.936;6.848;2023-02-25T15:53:59;3.03;;;1.92;;
53505;SDS011;39388;50.936;6.848;2023-02-25T15:56:43;2.35;;;1.98;;
53505;SDS011;39388;50.936;6.848;2023-02-25T15:59:39;4.30;;;1.80;;
53505;SDS011;39388;50.936;6.848;2023-02-25T16:08:10;1.90;;;1.50;;
53505;SDS011;39388;50.936;6.848;2023-02-25T16:10:46;3.05;;;1.65;;
53505;SDS011;39388;50.936;6.848;2023-02-25T16:13:26;3.63;;;1.58;;
53505;SDS011;39388;50.936;6.848;2023-02-25T16:16:01;6.80;;;1.95;;
53505;SDS011;39388;50.936;6.848;2023-02-25T16:18:33;2.53;;;1.60;;
53505;SDS011;39388;50.936;6.848;2023-02-25T16:21:23;2.92;;;2.08;;
53505;SDS011;39388;50.936;6.848;2023-02-25T16:23:58;2.17;;;1.58;;
53505;SDS011;39388;50.936;6.848;2023-02-25T16:34:46;1.63;;;1.52;;
53505;SDS011;39388;50.936;6.848;2023-02-25T16:37:32;1.52;;;1.40;;
53505;SDS011;39388;50.936;6.848;2023-02-25T16:40:16;2.22;;;1.55;;
53505;SDS011;39388;50.936;6.848;2023-02-25T16:43:15;2.63;;;1.50;;
53505;SDS011;39388;50.936;6.848;2023-02-25T16:45:55;2.45;;;1.90;;
53505;SDS011;39388;50.936;6.848;2023-02-25T16:48:29;1.60;;;1.50;;
53505;SDS011;39388;50.936;6.848;2023-02-25T16:51:10;1.75;;;1.65;;
53505;SDS011;39388;50.936;6.848;2023-02-25T16:53:50;2.90;;;1.80;;
53505;SDS011;39388;50.936;6.848;2023-02-25T16:56:26;2.30;;;1.88;;
53505;SDS011;39388;50.936;6.848;2023-02-25T16:59:04;2.58;;;1.88;;
53505;SDS011;39388;50.936;6.848;2023-02-25T17:01:48;1.80;;;1.70;;
53505;SDS011;39388;50.936;6.848;2023-02-25T17:04:29;2.90;;;1.80;;
53505;SDS011;39388;50.936;6.848;2023-02-25T17:12:17;4.25;;;2.25;;
53505;SDS011;39388;50.936;6.848;2023-02-25T17:14:58;3.63;;;2.15;;
53505;SDS011;39388;50.936;6.848;2023-02-25T17:17:31;3.72;;;2.00;;
53505;SDS011;39388;50.936;6.848;2023-02-25T17:20:06;4.25;;;2.33;;
53505;SDS011;39388;50.936;6.848;2023-02-25T17:22:44;2.63;;;1.92;;
53505;SDS011;39388;50.936;6.848;2023-02-25T17:25:15;3.35;;;2.30;;
53505;SDS011;39388;50.936;6.848;2023-02-25T17:27:47;4.00;;;2.00;;
53505;SDS011;39388;50.936;6.848;2023-02-25T17:30:32;2.45;;;2.25;;
53505;SDS011;39388;50.936;6.848;2023-02-25T17:33:21;5.15;;;2.47;;
53505;SDS011;39388;50.936;6.848;2023-02-25T17:35:55;2.83;;;2.10;;
53505;SDS011;39388;50.936;6.848;2023-02-25T17:38:28;3.13;;;2.10;;
53505;SDS011;39388;50.936;6.848;2023-02-25T17:40:59;4.65;;;2.33;;
53505;SDS011;39388;50.936;6.848;2023-02-25T17:46:22;5.20;;;2.22;;
53505;SDS011;39388;50.936;6.848;2023-02-25T17:48:57;2.38;;;2.10;;
53505;SDS011;39388;50.936;6.848;2023-02-25T17:51:34;4.72;;;2.42;;
53505;SDS011;39388;50.936;6.848;2023-02-25T17:54:07;2.10;;;1.90;;
53505;SDS011;39388;50.936;6.848;2023-02-25T17:56:42;2.05;;;1.80;;
53505;SDS011;39388;50.936;6.848;2023-02-25T18:01:54;3.00;;;2.00;;
53505;SDS011;39388;50.936;6.848;2023-02-25T18:04:39;3.33;;;2.40;;
53505;SDS011;39388;50.936;6.848;2023-02-25T18:09:58;7.60;;;2.60;;
53505;SDS011;39388;50.936;6.848;2023-02-25T18:12:31;3.88;;;2.63;;
53505;SDS011;39388;50.936;6.848;2023-02-25T18:15:25;3.53;;;2.30;;
53505;SDS011;39388;50.936;6.848;2023-02-25T18:17:56;3.88;;;2.38;;
53505;SDS011;39388;50.936;6.848;2023-02-25T18:25:44;4.25;;;2.30;;
53505;SDS011;39388;50.936;6.848;2023-02-25T18:28:17;4.15;;;2.30;;
53505;SDS011;39388;50.936;6.848;2023-02-25T18:30:53;3.60;;;2.50;;
53505;SDS011;39388;50.936;6.848;2023-02-25T18:33:23;2.50;;;2.20;;
53505;SDS011;39388;50.936;6.848;2023-02-25T18:35:53;4.28;;;2.30;;
53505;SDS011;39388;50.936;6.848;2023-02-25T18:38:24;2.50;;;2.30;;
53505;SDS011;39388;50.936;6.848;2023-02-25T18:40:58;2.47;;;2.28;;
53505;SDS011;39388;50.936;6.848;2023-02-25T18:43:31;3.83;;;2.10;;
53505;SDS011;39388;50.936;6.848;2023-02-25T18:46:04;2.67;;;2.20;;
53505;SDS011;39388;50.936;6.848;2023-02-25T18:48:34;2.67;;;2.38;;
53505;SDS011;39388;50.936;6.848;2023-02-25T18:51:08;3.25;;;2.42;;
53505;SDS011;39388;50.936;6.848;2023-02-25T18:53:41;2.40;;;2.20;;
53505;SDS011;39388;50.936;6.848;2023-02-25T18:56:14;2.65;;;2.10;;
53505;SDS011;39388;50.936;6.848;2023-02-25T18:58:45;3.40;;;2.50;;
53505;SDS011;39388;50.936;6.848;2023-02-25T19:01:18;6.35;;;2.60;;
53505;SDS011;39388;50.936;6.848;2023-02-25T19:03:52;3.90;;;2.45;;
53505;SDS011;39388;50.936;6.848;2023-02-25T19:06:28;3.08;;;2.45;;
53505;SDS011;39388;50.936;6.848;2023-02-25T19:09:00;4.13;;;2.42;;
53505;SDS011;39388;50.936;6.848;2023-02-25T19:11:33;3.95;;;2.40;;
53505;SDS011;39388;50.936;6.848;2023-02-25T19:14:05;2.70;;;2.50;;
53505;SDS011;39388;50.936;6.848;2023-02-25T19:16:37;2.53;;;2.20;;
53505;SDS011;39388;50.936;6.848;2023-02-25T19:19:07;4.63;;;3.15;;
53505;SDS011;39388;50.936;6.848;2023-02-25T19:21:37;4.55;;;2.70;;
53505;SDS011;39388;50.936;6.848;2023-02-25T19:24:10;2.90;;;2.65;;
53505;SDS011;39388;50.936;6.848;2023-02-25T19:26:40;3.35;;;2.40;;
53505;SDS011;39388;50.936;6.848;2023-02-25T19:29:11;2.67;;;2.30;;
53505;SDS011;39388;50.936;6.848;2023-02-25T19:31:41;3.63;;;2.60;;
53505;SDS011;39388;50.936;6.848;2023-02-25T19:34:11;3.50;;;2.55;;
53505;SDS011;39388;50.936;6.848;2023-02-25T19:36:42;2.78;;;2.47;;
53505;SDS011;39388;50.936;6.848;2023-02-25T19:39:12;4.75;;;2.60;;
53505;SDS011;39388;50.936;6.848;2023-02-25T19:41:42;3.40;;;2.42;;
53505;SDS011;39388;50.936;6.848;2023-02-25T19:44:13;3.25;;;2.35;;